Time;durP1;ratioP1;P1;durP2;ratioP2;P2;SDS_P1;SDS_P2;PMS_P1;PMS_P2;Temp;Humidity;BMP_temperature;BMP_pressure;BME280_temperature;BME280_humidity;BME280_pressure;Samples;Min_cycle;Max_cycle;Signal;HPM_P1;HPM_P2
2022/11/11 00:00:03;;;;;;;6.88;2.30;;;10.60;99.90;;;;;;5071444;28;20437;-81
2022/11/11 00:02:29;;;;;;;10.30;2.83;;;10.70;99.90;;;;;;5069898;28;20090;-83
2022/11/11 00:04:54;;;;;;;4.93;1.90;;;10.60;99.90;;;;;;5055496;28;20112;-83
2022/11/11 00:07:20;;;;;;;10.07;3.90;;;10.60;99.90;;;;;;5061311;28;20049;-81
2022/11/11 00:09:46;;;;;;;5.57;2.65;;;10.70;99.90;;;;;;5031871;28;20447;-82
2022/11/11 00:12:11;;;;;;;5.25;2.50;;;10.70;99.90;;;;;;5069302;28;20041;-81
2022/11/11 00:14:37;;;;;;;5.40;3.15;;;10.70;99.90;;;;;;5070262;28;20509;-81
2022/11/11 00:25:16;;;;;;;5.40;2.78;;;10.70;99.90;;;;;;5069443;28;20492;-81
2022/11/11 00:27:42;;;;;;;4.22;2.30;;;10.70;99.90;;;;;;5047595;28;20055;-82
2022/11/11 00:30:08;;;;;;;8.57;2.83;;;10.70;99.90;;;;;;5064575;28;20391;-82
2022/11/11 00:32:34;;;;;;;7.75;2.72;;;10.70;99.90;;;;;;5060797;28;20072;-81
2022/11/11 00:37:47;;;;;;;4.03;2.95;;;10.70;99.90;;;;;;5049957;28;20044;-82
2022/11/11 00:40:14;;;;;;;5.43;3.25;;;10.70;99.90;;;;;;5051784;28;20048;-82
2022/11/11 00:42:40;;;;;;;7.43;3.22;;;10.70;99.90;;;;;;5045050;28;20037;-82
2022/11/11 00:45:07;;;;;;;6.55;2.78;;;10.70;99.90;;;;;;5050259;28;20150;-86
2022/11/11 00:53:18;;;;;;;4.93;2.72;;;10.70;99.90;;;;;;5046862;28;20057;-82
2022/11/11 00:55:44;;;;;;;5.47;2.25;;;10.70;99.90;;;;;;5050692;28;20428;-82
2022/11/11 00:58:10;;;;;;;6.22;2.85;;;10.70;99.90;;;;;;5065721;28;20124;-83
2022/11/11 01:00:35;;;;;;;8.25;2.88;;;10.70;99.90;;;;;;5048839;28;20048;-83
2022/11/11 01:03:01;;;;;;;12.65;3.35;;;10.60;99.90;;;;;;5050207;28;20040;-83
2022/11/11 01:05:27;;;;;;;3.63;2.45;;;10.60;99.90;;;;;;5036547;28;20036;-81
2022/11/11 01:07:53;;;;;;;3.25;2.35;;;10.50;99.90;;;;;;5068418;28;20044;-82
2022/11/11 01:10:38;;;;;;;6.97;2.78;;;10.40;99.90;;;;;;5068414;28;20088;-81
2022/11/11 01:13:14;;;;;;;6.53;2.72;;;10.40;99.90;;;;;;5047136;28;20392;-82
2022/11/11 01:15:42;;;;;;;7.63;3.38;;;10.20;99.90;;;;;;5030067;28;20092;-81
2022/11/11 01:18:09;;;;;;;6.57;2.78;;;10.20;99.90;;;;;;5048561;28;20122;-83
2022/11/11 01:20:36;;;;;;;3.95;2.95;;;10.10;99.90;;;;;;5047319;28;20059;-81
2022/11/11 01:23:06;;;;;;;5.25;2.35;;;10.00;99.90;;;;;;5062421;28;20052;-81
2022/11/11 01:25:35;;;;;;;9.85;2.80;;;10.00;99.90;;;;;;5049256;28;20044;-81
2022/11/11 01:28:03;;;;;;;4.15;2.63;;;10.00;99.90;;;;;;5062818;28;20041;-81
2022/11/11 01:30:31;;;;;;;8.68;3.28;;;9.90;99.90;;;;;;5046765;28;20419;-82
2022/11/11 01:32:56;;;;;;;3.97;2.63;;;9.90;99.90;;;;;;5066134;28;20376;-85
2022/11/11 01:35:22;;;;;;;7.97;3.63;;;9.80;99.90;;;;;;5074203;28;20045;-82
2022/11/11 01:37:48;;;;;;;7.10;2.78;;;9.80;99.90;;;;;;5049810;28;20052;-80
2022/11/11 01:40:14;;;;;;;5.47;2.88;;;9.80;99.90;;;;;;5054580;28;20041;-81
2022/11/11 01:43:05;;;;;;;7.47;3.33;;;9.70;99.90;;;;;;5071088;28;20044;-82
2022/11/11 01:45:49;;;;;;;9.93;3.88;;;9.70;99.90;;;;;;5057161;28;20378;-82
2022/11/11 01:51:40;;;;;;;12.75;4.05;;;9.60;99.90;;;;;;5047335;28;20049;-81
2022/11/11 01:54:11;;;;;;;8.68;3.75;;;9.60;99.90;;;;;;5046314;28;20377;-83
2022/11/11 01:56:38;;;;;;;5.80;3.75;;;9.60;99.90;;;;;;5053854;28;20117;-82
2022/11/11 01:59:13;;;;;;;5.03;2.88;;;9.60;99.90;;;;;;5047428;28;20487;-82
2022/11/11 02:01:40;;;;;;;11.95;4.75;;;9.60;99.90;;;;;;5059722;28;20049;-82
2022/11/11 02:06:54;;;;;;;9.60;4.05;;;9.60;99.90;;;;;;5041157;28;20063;-83
2022/11/11 02:09:23;;;;;;;8.10;4.03;;;9.50;99.90;;;;;;5068800;28;20395;-81
2022/11/11 02:14:41;;;;;;;6.07;3.78;;;9.50;99.90;;;;;;5053919;28;20064;-81
2022/11/11 02:17:10;;;;;;;6.50;3.63;;;9.50;99.90;;;;;;5065263;28;20041;-83
2022/11/11 02:19:56;;;;;;;9.68;4.90;;;9.50;99.90;;;;;;5050287;28;20045;-82
2022/11/11 02:22:39;;;;;;;10.80;4.32;;;9.50;99.90;;;;;;5070433;28;20486;-80
2022/11/11 02:25:09;;;;;;;11.70;3.85;;;9.40;99.90;;;;;;5055939;28;20049;-82
2022/11/11 02:27:37;;;;;;;10.57;4.60;;;9.50;99.90;;;;;;5068810;28;20641;-82
2022/11/11 02:30:06;;;;;;;10.80;4.68;;;9.50;99.90;;;;;;5070105;28;20499;-83
2022/11/11 02:32:31;;;;;;;10.60;5.13;;;9.50;99.90;;;;;;5049287;28;20036;-82
2022/11/11 02:34:57;;;;;;;12.10;5.47;;;9.50;99.90;;;;;;5068183;28;20048;-86
2022/11/11 02:37:25;;;;;;;13.90;5.45;;;9.50;99.90;;;;;;5053029;28;20422;-84
2022/11/11 02:39:56;;;;;;;10.40;5.68;;;9.50;99.90;;;;;;5065940;28;20166;-83
2022/11/11 02:42:23;;;;;;;14.63;5.00;;;9.50;99.90;;;;;;5050199;28;20142;-85
2022/11/11 02:44:48;;;;;;;9.95;5.35;;;9.50;99.90;;;;;;5062520;28;20507;-82
2022/11/11 02:47:15;;;;;;;11.48;5.40;;;9.50;99.90;;;;;;5045585;28;20055;-81
2022/11/11 02:49:41;;;;;;;8.45;4.78;;;9.50;99.90;;;;;;5066811;28;20039;-82
2022/11/11 02:52:06;;;;;;;15.00;5.22;;;9.50;99.90;;;;;;5048022;28;20396;-81
2022/11/11 02:54:32;;;;;;;9.95;4.57;;;9.50;99.90;;;;;;5065041;28;20064;-82
2022/11/11 02:57:06;;;;;;;10.15;5.78;;;9.40;99.90;;;;;;5049024;28;20060;-81
2022/11/11 02:59:36;;;;;;;7.80;5.15;;;9.40;99.90;;;;;;5033330;28;20404;-82
2022/11/11 03:02:03;;;;;;;7.00;4.50;;;9.30;99.90;;;;;;5065310;28;20050;-83
2022/11/11 03:04:29;;;;;;;11.80;5.82;;;9.30;99.90;;;;;;5056584;28;20060;-82
2022/11/11 03:06:54;;;;;;;8.48;4.72;;;9.30;99.90;;;;;;5072092;28;20503;-83
2022/11/11 03:09:20;;;;;;;16.25;5.22;;;9.30;99.90;;;;;;5046750;28;20475;-84
2022/11/11 03:11:46;;;;;;;14.43;5.72;;;9.30;99.90;;;;;;5030873;28;20391;-82
2022/11/11 03:14:11;;;;;;;15.27;5.20;;;9.30;99.90;;;;;;5052220;28;20041;-82
2022/11/11 03:19:21;;;;;;;13.85;6.30;;;9.30;99.90;;;;;;5067123;28;20102;-82
2022/11/11 03:21:47;;;;;;;13.23;4.85;;;9.30;99.90;;;;;;5049319;28;20053;-84
2022/11/11 03:24:12;;;;;;;13.95;6.13;;;9.30;99.90;;;;;;5047048;28;20041;-82
2022/11/11 03:26:38;;;;;;;19.65;6.25;;;9.30;99.90;;;;;;5050760;28;20125;-82
2022/11/11 03:29:04;;;;;;;10.63;6.75;;;9.30;99.90;;;;;;5049286;28;20080;-81
2022/11/11 03:31:30;;;;;;;10.32;5.22;;;9.30;99.90;;;;;;5069897;28;20044;-83
2022/11/11 03:34:16;;;;;;;10.48;4.90;;;9.30;99.90;;;;;;5028994;28;20543;-84
2022/11/11 03:39:26;;;;;;;17.35;6.70;;;9.40;99.90;;;;;;5046867;28;20055;-84
2022/11/11 03:41:52;;;;;;;20.90;5.05;;;9.40;99.90;;;;;;5048794;28;20127;-82
2022/11/11 03:44:18;;;;;;;8.88;4.45;;;9.40;99.90;;;;;;5049404;28;20080;-82
2022/11/11 03:46:44;;;;;;;12.65;5.13;;;9.40;99.90;;;;;;5045824;28;20095;-84
2022/11/11 03:49:10;;;;;;;11.77;6.03;;;9.40;99.90;;;;;;5047768;28;20053;-83
2022/11/11 03:51:36;;;;;;;9.52;4.93;;;9.40;99.90;;;;;;5025449;28;20048;-81
2022/11/11 03:54:01;;;;;;;10.07;5.65;;;9.40;99.90;;;;;;5030452;28;20051;-82
2022/11/11 03:56:27;;;;;;;12.88;5.75;;;9.40;99.90;;;;;;5070693;28;20052;-83
2022/11/11 03:58:52;;;;;;;13.02;6.22;;;9.40;99.90;;;;;;5048255;28;20068;-82
2022/11/11 04:12:15;;;;;;;11.27;6.40;;;9.60;99.90;;;;;;5047395;28;20075;-82
2022/11/11 04:17:25;;;;;;;15.30;6.70;;;9.70;99.90;;;;;;5066307;28;20044;-83
2022/11/11 04:22:40;;;;;;;12.48;7.72;;;9.80;99.90;;;;;;5041025;28;20097;-83
2022/11/11 04:29:27;;;;;;;11.55;5.63;;;9.80;99.90;;;;;;5054706;28;20406;-83
2022/11/11 04:30:36;;;;;;;12.07;6.00;;;9.80;99.90;;;;;;5044903;28;20396;-82
2022/11/11 04:33:02;;;;;;;14.35;6.20;;;9.90;99.90;;;;;;5052965;28;20041;-82
2022/11/11 04:35:28;;;;;;;8.23;4.85;;;9.90;99.90;;;;;;5053841;28;20051;-82
2022/11/11 04:41:02;;;;;;;10.55;6.15;;;9.90;99.90;;;;;;5067127;28;20052;-81
2022/11/11 04:43:23;;;;;;;18.83;7.22;;;10.00;99.90;;;;;;5051505;28;20045;-82
2022/11/11 04:45:49;;;;;;;14.00;6.78;;;10.00;99.90;;;;;;5040414;28;20415;-83
2022/11/11 04:48:17;;;;;;;17.33;7.22;;;10.10;99.90;;;;;;5072356;28;20395;-83
2022/11/11 04:50:43;;;;;;;13.32;6.93;;;10.10;99.90;;;;;;5054050;28;20506;-81
2022/11/11 04:53:11;;;;;;;12.43;5.75;;;10.10;99.90;;;;;;5061235;28;20056;-83
2022/11/11 04:58:24;;;;;;;11.63;5.85;;;10.10;99.90;;;;;;5064320;28;20127;-82
2022/11/11 05:00:50;;;;;;;14.05;6.68;;;10.10;99.90;;;;;;5051893;28;20079;-83
2022/11/11 05:03:19;;;;;;;10.68;5.70;;;10.00;99.90;;;;;;5044157;28;20087;-81
2022/11/11 05:09:00;;;;;;;11.25;5.85;;;10.00;99.90;;;;;;5051608;28;20056;-82
2022/11/11 05:11:33;;;;;;;14.52;6.85;;;10.00;99.90;;;;;;5043768;28;20045;-82
2022/11/11 05:22:28;;;;;;;10.20;5.60;;;9.90;99.90;;;;;;5052306;28;20158;-81
2022/11/11 05:27:38;;;;;;;14.98;6.55;;;9.80;99.90;;;;;;5059477;28;20140;-82
2022/11/11 05:30:05;;;;;;;23.58;7.50;;;9.80;99.90;;;;;;5028893;28;20132;-81
2022/11/11 05:32:31;;;;;;;11.73;5.18;;;9.90;99.90;;;;;;5058488;28;20040;-81
2022/11/11 05:34:57;;;;;;;13.50;6.65;;;9.90;99.90;;;;;;5046246;28;20483;-82
2022/11/11 05:37:23;;;;;;;10.63;5.65;;;9.90;99.90;;;;;;5065649;28;20036;-81
2022/11/11 05:39:48;;;;;;;18.02;6.97;;;9.90;99.90;;;;;;5047418;28;20131;-82
2022/11/11 05:42:14;;;;;;;15.75;6.60;;;10.00;99.90;;;;;;5047780;28;20070;-85
2022/11/11 05:44:40;;;;;;;17.15;6.55;;;10.00;99.90;;;;;;5067682;28;20032;-82
2022/11/11 05:47:06;;;;;;;11.77;6.40;;;10.00;99.90;;;;;;5032175;28;20400;-81
2022/11/11 05:49:32;;;;;;;20.80;6.05;;;10.00;99.90;;;;;;5062100;28;20039;-80
2022/11/11 05:51:58;;;;;;;10.23;6.07;;;10.00;99.90;;;;;;5065908;28;20048;-82
2022/11/11 05:54:25;;;;;;;10.90;4.95;;;10.00;99.90;;;;;;5051936;28;20041;-82
2022/11/11 05:56:51;;;;;;;15.35;6.65;;;10.10;99.90;;;;;;5045024;28;20102;-81
2022/11/11 05:59:16;;;;;;;13.57;5.05;;;10.10;99.90;;;;;;5069483;28;20051;-81
2022/11/11 06:01:42;;;;;;;19.10;7.20;;;10.10;99.90;;;;;;5065855;28;20049;-81
2022/11/11 06:04:08;;;;;;;12.35;5.53;;;10.10;99.90;;;;;;5038685;28;20055;-85
2022/11/11 06:06:35;;;;;;;9.73;5.72;;;10.10;99.90;;;;;;5039905;28;20068;-83
2022/11/11 06:09:00;;;;;;;9.98;6.07;;;10.10;99.90;;;;;;5048700;28;20048;-81
2022/11/11 06:11:26;;;;;;;16.98;6.38;;;10.10;99.90;;;;;;5066764;28;20044;-83
2022/11/11 06:13:53;;;;;;;11.77;5.57;;;10.10;99.90;;;;;;5046716;28;20052;-87
2022/11/11 06:16:19;;;;;;;12.85;5.50;;;10.20;99.90;;;;;;5063452;28;20067;-82
2022/11/11 06:18:45;;;;;;;9.23;4.97;;;10.20;99.90;;;;;;5048647;28;20053;-81
2022/11/11 06:21:10;;;;;;;12.27;5.43;;;10.20;99.90;;;;;;5044344;28;20040;-84
2022/11/11 06:23:36;;;;;;;11.38;5.30;;;10.20;99.90;;;;;;5069520;28;20049;-81
2022/11/11 06:26:11;;;;;;;18.88;5.90;;;10.20;99.90;;;;;;5067726;28;20049;-82
2022/11/11 06:28:38;;;;;;;11.85;5.18;;;10.20;99.90;;;;;;5051954;28;20044;-81
2022/11/11 06:31:06;;;;;;;16.73;5.88;;;10.20;99.90;;;;;;5067096;28;20102;-84
2022/11/11 06:33:35;;;;;;;11.95;5.60;;;10.20;99.90;;;;;;5072261;28;20040;-83
2022/11/11 06:36:02;;;;;;;17.65;6.07;;;10.20;99.90;;;;;;5026753;28;20475;-81
2022/11/11 06:38:28;;;;;;;11.27;6.07;;;10.30;99.90;;;;;;5055298;28;20048;-83
2022/11/11 06:40:53;;;;;;;6.65;4.60;;;10.20;99.90;;;;;;5073673;28;20403;-83
2022/11/11 06:43:19;;;;;;;8.43;5.20;;;10.30;99.90;;;;;;5050185;28;20032;-83
2022/11/11 06:45:48;;;;;;;12.68;5.38;;;10.20;99.90;;;;;;5067549;28;20049;-83
2022/11/11 06:48:14;;;;;;;12.57;6.40;;;10.20;99.90;;;;;;5070004;28;20143;-82
2022/11/11 06:50:39;;;;;;;9.20;5.65;;;10.20;99.90;;;;;;5066223;28;20063;-83
2022/11/11 06:53:13;;;;;;;11.38;5.78;;;10.30;99.90;;;;;;5065467;28;20037;-83
2022/11/11 06:55:39;;;;;;;7.47;4.65;;;10.20;99.90;;;;;;5031398;28;20136;-84
2022/11/11 06:58:12;;;;;;;9.00;5.63;;;10.30;99.90;;;;;;5066629;28;20082;-86
2022/11/11 07:00:38;;;;;;;9.43;4.85;;;10.30;99.90;;;;;;5049178;28;20040;-81
2022/11/11 07:03:06;;;;;;;10.48;5.03;;;10.30;99.90;;;;;;5062026;28;20488;-83
2022/11/11 07:05:33;;;;;;;13.13;5.20;;;10.30;99.90;;;;;;5056009;28;20090;-83
2022/11/11 07:08:07;;;;;;;14.23;5.18;;;10.30;99.90;;;;;;5053701;28;20049;-81
2022/11/11 07:10:35;;;;;;;15.40;6.55;;;10.30;99.90;;;;;;5065847;28;20041;-83
2022/11/11 07:13:01;;;;;;;12.85;6.07;;;10.30;99.90;;;;;;5079233;28;20049;-82
2022/11/11 07:15:27;;;;;;;10.05;4.53;;;10.30;99.90;;;;;;5068957;28;20167;-89
2022/11/11 07:17:53;;;;;;;11.23;5.40;;;10.30;99.90;;;;;;5075386;28;20041;-80
2022/11/11 07:20:19;;;;;;;8.57;5.97;;;10.30;99.90;;;;;;5067504;28;20048;-80
2022/11/11 07:22:45;;;;;;;10.52;5.28;;;10.30;99.90;;;;;;5078381;28;20139;-83
2022/11/11 07:25:11;;;;;;;8.23;4.63;;;10.30;99.90;;;;;;5073448;28;20045;-85
2022/11/11 07:27:40;;;;;;;14.52;4.10;;;10.30;99.90;;;;;;5058383;28;20055;-83
2022/11/11 07:30:07;;;;;;;10.02;5.50;;;10.30;99.90;;;;;;5056556;28;20047;-82
2022/11/11 07:32:33;;;;;;;11.25;5.25;;;10.40;99.90;;;;;;5070961;28;20070;-83
2022/11/11 07:34:59;;;;;;;11.50;5.97;;;10.40;99.90;;;;;;5066135;28;20072;-86
2022/11/11 07:37:24;;;;;;;9.68;5.13;;;10.40;99.90;;;;;;5049371;28;20045;-82
2022/11/11 07:39:50;;;;;;;7.55;4.95;;;10.40;99.90;;;;;;5031020;28;20068;-82
2022/11/11 07:42:16;;;;;;;10.45;3.80;;;10.30;99.90;;;;;;5066482;28;20048;-82
2022/11/11 07:44:42;;;;;;;14.52;6.07;;;10.50;99.90;;;;;;5067605;28;20063;-87
2022/11/11 07:47:07;;;;;;;8.45;4.60;;;10.40;99.90;;;;;;5044069;28;20056;-82
2022/11/11 07:49:33;;;;;;;8.38;4.78;;;10.50;99.90;;;;;;5063346;28;20084;-83
2022/11/11 07:51:59;;;;;;;10.68;4.32;;;10.50;99.90;;;;;;5062992;28;20045;-83
2022/11/11 07:54:24;;;;;;;10.93;6.00;;;10.50;99.90;;;;;;5048239;28;20041;-82
2022/11/11 07:56:50;;;;;;;12.98;6.47;;;10.50;99.90;;;;;;5029487;28;20049;-83
2022/11/11 07:59:16;;;;;;;10.20;5.10;;;10.50;99.90;;;;;;5070473;28;20127;-84
2022/11/11 08:01:42;;;;;;;8.50;4.20;;;10.50;99.90;;;;;;5033126;28;20036;-81
2022/11/11 08:04:08;;;;;;;14.13;5.55;;;10.50;99.90;;;;;;5061792;28;20036;-82
2022/11/11 08:06:33;;;;;;;10.50;4.63;;;10.50;99.90;;;;;;5045039;28;20037;-86
2022/11/11 08:08:59;;;;;;;13.80;5.53;;;10.60;99.90;;;;;;5056877;28;20048;-82
2022/11/11 08:14:09;;;;;;;9.80;4.40;;;10.60;99.90;;;;;;5029083;28;20148;-81
2022/11/11 08:16:34;;;;;;;11.00;4.60;;;10.60;99.90;;;;;;5048786;28;20119;-82
2022/11/11 08:19:00;;;;;;;8.82;4.65;;;10.70;99.90;;;;;;5061195;28;20032;-83
2022/11/11 08:21:26;;;;;;;9.75;4.30;;;10.70;99.90;;;;;;5025157;28;20573;-82
2022/11/11 08:23:52;;;;;;;6.63;3.42;;;10.70;99.90;;;;;;5067515;28;20123;-85
2022/11/11 08:26:20;;;;;;;9.38;4.63;;;10.70;99.90;;;;;;5060745;28;20053;-81
2022/11/11 08:28:46;;;;;;;9.70;4.38;;;10.70;99.90;;;;;;5048094;28;20487;-83
2022/11/11 08:31:12;;;;;;;10.32;4.57;;;10.80;99.90;;;;;;5029296;28;20045;-82
2022/11/11 08:33:38;;;;;;;9.95;4.40;;;10.80;99.90;;;;;;5063839;28;20143;-90
2022/11/11 08:36:05;;;;;;;13.57;4.68;;;10.80;99.90;;;;;;5044643;28;20445;-82
2022/11/11 08:38:30;;;;;;;11.63;4.00;;;10.90;99.90;;;;;;5061024;28;20045;-80
2022/11/11 08:41:00;;;;;;;13.30;4.88;;;10.90;99.90;;;;;;5064414;28;20123;-83
2022/11/11 08:43:26;;;;;;;6.25;4.30;;;10.90;99.90;;;;;;5064337;28;20044;-85
2022/11/11 08:45:52;;;;;;;12.75;5.18;;;11.00;99.90;;;;;;5045103;28;20056;-83
2022/11/11 08:48:18;;;;;;;7.18;4.07;;;11.00;99.90;;;;;;5047581;28;20055;-82
2022/11/11 08:50:44;;;;;;;8.65;4.60;;;11.00;99.90;;;;;;5066287;28;20048;-82
2022/11/11 08:53:10;;;;;;;9.18;4.25;;;11.00;99.90;;;;;;5059733;28;20558;-84
2022/11/11 08:55:37;;;;;;;7.38;3.38;;;11.00;99.90;;;;;;5063561;28;20044;-82
2022/11/11 08:58:05;;;;;;;10.27;4.90;;;11.10;99.90;;;;;;5068609;28;20521;-82
2022/11/11 09:00:32;;;;;;;6.38;3.65;;;11.10;99.90;;;;;;5066156;28;20048;-82
2022/11/11 09:03:09;;;;;;;7.03;3.58;;;11.10;99.90;;;;;;5053218;28;20414;-82
2022/11/11 09:05:38;;;;;;;8.65;3.75;;;11.10;99.90;;;;;;5068061;28;20055;-80
2022/11/11 09:08:06;;;;;;;7.22;4.25;;;11.20;99.90;;;;;;5052239;28;20128;-82
2022/11/11 09:10:35;;;;;;;9.48;3.67;;;11.20;99.90;;;;;;5034648;28;20128;-81
2022/11/11 09:13:01;;;;;;;12.50;3.67;;;11.20;99.90;;;;;;5067762;28;20048;-81
2022/11/11 09:15:27;;;;;;;9.27;4.28;;;11.20;99.90;;;;;;5053649;28;20036;-81
2022/11/11 09:17:53;;;;;;;8.40;4.40;;;11.30;99.90;;;;;;5072228;28;20446;-80
2022/11/11 09:20:20;;;;;;;9.80;4.03;;;11.30;99.90;;;;;;5072212;28;20048;-81
2022/11/11 09:22:47;;;;;;;18.48;4.75;;;11.30;99.90;;;;;;5072161;28;20045;-83
2022/11/11 09:25:14;;;;;;;9.25;3.58;;;11.30;99.90;;;;;;5071592;28;20041;-81
2022/11/11 09:27:40;;;;;;;7.07;3.35;;;11.30;99.90;;;;;;5072004;28;20083;-80
2022/11/11 09:30:06;;;;;;;8.95;4.13;;;11.30;99.90;;;;;;5072029;28;20502;-81
2022/11/11 09:32:32;;;;;;;11.55;3.65;;;11.30;99.90;;;;;;5052100;28;20084;-81
2022/11/11 09:34:59;;;;;;;7.15;3.92;;;11.30;99.90;;;;;;5052060;28;20077;-79
2022/11/11 09:37:25;;;;;;;7.57;3.80;;;11.30;99.90;;;;;;5034133;28;20059;-82
2022/11/11 09:39:51;;;;;;;6.60;3.65;;;11.30;99.90;;;;;;5039708;28;20337;-81
2022/11/11 09:42:47;;;;;;;6.00;3.42;;;11.40;99.90;;;;;;5071543;28;20102;-80
2022/11/11 09:45:29;;;;;;;12.05;3.70;;;11.40;99.90;;;;;;5054461;28;20189;-80
2022/11/11 09:48:07;;;;;;;;;;;11.50;99.90;;;;;;5054828;28;20056;-82
2022/11/11 09:50:38;;;;;;;9.75;4.22;;;11.50;99.90;;;;;;5063401;28;19936;-82
2022/11/11 09:53:29;;;;;;;10.18;4.00;;;11.50;99.90;;;;;;5069774;28;20047;-80
2022/11/11 09:56:00;;;;;;;7.68;3.60;;;11.50;99.90;;;;;;5030697;28;20045;-81
2022/11/11 09:58:33;;;;;;;8.77;4.10;;;11.50;99.90;;;;;;5060043;28;20045;-81
2022/11/11 10:01:13;;;;;;;6.13;3.22;;;11.50;99.90;;;;;;5038650;28;20059;-81
2022/11/11 10:03:43;;;;;;;9.82;5.07;;;11.60;99.90;;;;;;5055586;28;20045;-80
2022/11/11 10:06:20;;;;;;;8.70;3.55;;;11.60;99.90;;;;;;5059098;28;20052;-84
2022/11/11 10:09:04;;;;;;;7.72;4.18;;;11.70;99.90;;;;;;5070445;28;20110;-80
2022/11/11 10:11:39;;;;;;;9.88;4.13;;;11.70;99.90;;;;;;5051378;28;20044;-80
2022/11/11 10:14:05;;;;;;;5.13;3.35;;;11.70;99.90;;;;;;5061695;28;20128;-80
2022/11/11 10:16:46;;;;;;;9.43;3.92;;;11.80;99.90;;;;;;5053186;28;20182;-80
2022/11/11 10:19:21;;;;;;;10.15;3.13;;;11.80;99.90;;;;;;5041616;28;20049;-81
2022/11/11 10:21:52;;;;;;;8.45;4.13;;;11.80;99.90;;;;;;5061736;28;20045;-82
2022/11/11 10:24:47;;;;;;;5.55;3.38;;;11.80;99.90;;;;;;5073515;28;20079;-81
2022/11/11 10:27:19;;;;;;;5.47;3.53;;;11.80;99.90;;;;;;5053031;28;20060;-80
2022/11/11 10:29:48;;;;;;;10.85;3.63;;;11.80;99.90;;;;;;5058881;28;20411;-83
2022/11/11 10:32:32;;;;;;;5.65;3.25;;;11.80;99.90;;;;;;5037049;28;20053;-80
2022/11/11 10:35:24;;;;;;;7.57;3.65;;;11.80;99.90;;;;;;5069901;28;20632;-81
2022/11/11 10:38:04;;;;;;;5.25;3.47;;;11.80;99.90;;;;;;5064399;28;20060;-81
2022/11/11 10:40:45;;;;;;;11.77;4.00;;;11.80;99.90;;;;;;5046636;28;20080;-81
2022/11/11 10:43:19;;;;;;;7.03;2.97;;;11.80;99.90;;;;;;5073753;28;20044;-81
2022/11/11 10:45:59;;;;;;;10.07;4.57;;;11.90;99.90;;;;;;5074590;28;20491;-80
2022/11/11 10:48:40;;;;;;;14.52;4.82;;;11.90;99.90;;;;;;5056876;28;20372;-80
2022/11/11 10:51:06;;;;;;;7.35;3.38;;;11.90;99.90;;;;;;5059023;28;20041;-80
2022/11/11 10:53:38;;;;;;;7.30;4.20;;;11.90;99.90;;;;;;5054585;28;20083;-81
2022/11/11 10:56:30;;;;;;;8.73;3.65;;;11.90;99.90;;;;;;5054626;28;20051;-81
2022/11/11 10:59:12;;;;;;;8.30;3.83;;;11.90;99.90;;;;;;5056597;28;20044;-81
2022/11/11 11:02:08;;;;;;;7.45;3.92;;;11.90;99.90;;;;;;5068154;28;20110;-81
2022/11/11 11:04:34;;;;;;;9.82;3.63;;;12.00;99.90;;;;;;5045506;28;20096;-80
2022/11/11 11:07:02;;;;;;;12.60;4.88;;;12.00;99.90;;;;;;5061332;28;20134;-81
2022/11/11 11:09:36;;;;;;;6.45;3.22;;;12.00;99.90;;;;;;5055420;28;20036;-81
2022/11/11 11:12:16;;;;;;;10.48;3.97;;;12.10;99.90;;;;;;5047469;28;20108;-80
2022/11/11 11:14:44;;;;;;;5.65;3.28;;;12.10;99.90;;;;;;5072533;28;20059;-80
2022/11/11 11:17:18;;;;;;;8.68;3.25;;;12.00;99.90;;;;;;5073126;28;20040;-82
2022/11/11 11:19:46;;;;;;;6.30;3.38;;;12.10;99.90;;;;;;5074342;28;20047;-82
2022/11/11 11:22:12;;;;;;;7.85;4.22;;;12.20;99.90;;;;;;5045808;28;20403;-81
2022/11/11 11:24:38;;;;;;;6.95;3.97;;;12.20;99.90;;;;;;5081532;28;20036;-81
2022/11/11 11:27:06;;;;;;;8.07;3.60;;;12.30;99.90;;;;;;5069995;28;20044;-85
2022/11/11 11:29:43;;;;;;;5.88;3.60;;;12.40;99.90;;;;;;5040689;28;20048;-83
2022/11/11 11:32:20;;;;;;;9.88;4.75;;;12.50;99.90;;;;;;5077036;28;20488;-82
2022/11/11 11:34:56;;;;;;;11.85;3.80;;;12.60;99.90;;;;;;5059259;28;20074;-81
2022/11/11 11:37:24;;;;;;;7.30;3.50;;;12.70;99.90;;;;;;5044894;28;20458;-81
2022/11/11 11:40:02;;;;;;;8.35;3.67;;;12.80;99.90;;;;;;5077641;28;20499;-81
2022/11/11 11:42:35;;;;;;;7.72;4.00;;;12.70;99.90;;;;;;5041854;28;20113;-80
2022/11/11 11:45:33;;;;;;;5.05;3.55;;;12.70;99.90;;;;;;5073534;28;20076;-81
2022/11/11 11:47:58;;;;;;;6.40;3.10;;;12.70;99.90;;;;;;5039556;28;20057;-80
2022/11/11 11:50:50;;;;;;;14.02;4.25;;;12.70;99.90;;;;;;5069590;28;20139;-80
2022/11/11 11:53:30;;;;;;;7.67;3.67;;;12.60;99.90;;;;;;5078824;28;20044;-80
2022/11/11 11:56:06;;;;;;;9.95;4.03;;;12.60;99.90;;;;;;5054610;28;20044;-80
2022/11/11 11:58:40;;;;;;;6.47;3.50;;;12.60;99.90;;;;;;5062638;28;20171;-80
2022/11/11 12:01:12;;;;;;;7.78;3.58;;;12.70;99.90;;;;;;5072779;28;20048;-81
2022/11/11 12:03:38;;;;;;;10.52;3.85;;;12.70;99.90;;;;;;5073497;28;20050;-80
2022/11/11 12:06:42;;;;;;;8.32;3.38;;;12.90;99.90;;;;;;5077154;28;20041;-80
2022/11/11 12:09:24;;;;;;;8.82;3.17;;;12.90;99.90;;;;;;5033999;28;20055;-81
2022/11/11 12:12:08;;;;;;;;;;;12.90;99.90;;;;;;5053815;28;20109;-81
2022/11/11 12:14:52;;;;;;;7.45;4.40;;;12.90;99.90;;;;;;5035445;28;19920;-81
2022/11/11 12:17:28;;;;;;;8.50;3.47;;;12.90;99.90;;;;;;5062575;28;20377;-81
2022/11/11 12:20:19;;;;;;;6.72;3.15;;;12.80;99.90;;;;;;5053266;28;20100;-81
2022/11/11 12:23:03;;;;;;;5.18;2.90;;;12.80;99.90;;;;;;5035379;28;20087;-80
2022/11/11 12:25:57;;;;;;;6.50;2.80;;;12.80;99.90;;;;;;5055285;28;20464;-79
2022/11/11 12:28:55;;;;;;;6.65;3.63;;;12.80;99.90;;;;;;5043614;28;20136;-81
2022/11/11 12:31:42;;;;;;;5.43;3.00;;;12.80;99.90;;;;;;5042390;28;20048;-81
2022/11/11 12:34:21;;;;;;;5.40;2.88;;;12.80;99.90;;;;;;5072785;28;20047;-81
2022/11/11 12:36:52;;;;;;;6.97;2.75;;;12.80;99.90;;;;;;5054943;28;20080;-82
2022/11/11 12:40:00;;;;;;;7.65;3.95;;;12.70;99.90;;;;;;5054584;28;20095;-81
2022/11/11 12:42:34;;;;;;;5.80;2.63;;;12.70;99.90;;;;;;5054891;28;20048;-81
2022/11/11 12:45:17;;;;;;;7.03;3.25;;;12.70;99.90;;;;;;5072811;28;20446;-82
2022/11/11 12:48:04;;;;;;;6.78;3.35;;;12.80;99.90;;;;;;5034580;28;20053;-83
2022/11/11 12:50:49;;;;;;;4.90;2.92;;;12.80;99.90;;;;;;5012992;28;20065;-81
2022/11/11 12:53:22;;;;;;;6.50;3.47;;;12.80;99.90;;;;;;5012745;28;20046;-81
2022/11/11 12:56:06;;;;;;;6.70;3.28;;;12.70;99.90;;;;;;5028539;28;20057;-81
2022/11/11 12:58:37;;;;;;;7.00;3.67;;;12.80;99.90;;;;;;4996612;28;20081;-81
2022/11/11 13:01:22;;;;;;;8.63;3.58;;;12.80;99.90;;;;;;5015089;28;20133;-80
2022/11/11 13:03:53;;;;;;;8.70;3.75;;;12.80;99.90;;;;;;5030764;28;20076;-81
2022/11/11 13:06:35;;;;;;;6.37;2.77;;;12.80;99.90;;;;;;5031064;28;20072;-81
2022/11/11 13:09:27;;;;;;;8.75;3.47;;;12.90;99.90;;;;;;5029237;28;20057;-80
2022/11/11 13:12:04;;;;;;;6.90;3.60;;;12.90;99.90;;;;;;5032480;28;20133;-80
2022/11/11 13:14:29;;;;;;;11.23;3.88;;;13.00;99.90;;;;;;5031348;28;20057;-81
2022/11/11 13:16:59;;;;;;;5.40;3.40;;;13.00;99.90;;;;;;5032347;28;20054;-82
2022/11/11 13:19:36;;;;;;;5.75;2.75;;;13.10;99.90;;;;;;5027493;28;20034;-80
2022/11/11 13:22:24;;;;;;;6.65;3.17;;;13.10;99.90;;;;;;5012663;28;20049;-81
2022/11/11 13:24:51;;;;;;;9.45;3.83;;;13.20;99.90;;;;;;5016397;28;20049;-82
2022/11/11 13:27:42;;;;;;;5.50;2.75;;;13.20;99.90;;;;;;5032919;28;20115;-81
2022/11/11 13:30:23;;;;;;;6.50;3.60;;;13.20;99.90;;;;;;5034803;28;20115;-82
2022/11/11 13:33:04;;;;;;;12.75;4.20;;;13.30;99.90;;;;;;5036136;28;20064;-80
2022/11/11 13:35:44;;;;;;;6.32;3.22;;;13.40;99.90;;;;;;5028498;28;20052;-82
2022/11/11 13:38:43;;;;;;;7.90;2.67;;;13.40;99.90;;;;;;5019550;28;20054;-81
2022/11/11 13:41:09;;;;;;;6.50;2.88;;;13.40;99.90;;;;;;5022550;28;20049;-82
2022/11/11 13:43:41;;;;;;;7.88;3.08;;;13.40;99.90;;;;;;5016155;28;20470;-82
2022/11/11 13:46:14;;;;;;;;;;;13.40;99.90;;;;;;5021855;28;20046;-83
2022/11/11 13:48:48;;;;;;;9.40;3.50;;;13.40;99.90;;;;;;5041164;28;19924;-81
2022/11/11 13:51:41;;;;;;;3.78;2.40;;;13.30;99.90;;;;;;5067010;28;20044;-81
2022/11/11 13:54:28;;;;;;;6.57;3.00;;;13.30;99.90;;;;;;5055796;28;20048;-82
2022/11/11 13:57:21;;;;;;;6.35;2.80;;;13.20;99.90;;;;;;5071582;28;20041;-82
2022/11/11 14:00:03;;;;;;;7.18;3.03;;;13.20;99.90;;;;;;5057428;28;20057;-82
2022/11/11 14:02:34;;;;;;;9.90;3.05;;;13.10;99.90;;;;;;5073621;28;20048;-81
2022/11/11 14:05:07;;;;;;;9.23;3.45;;;13.10;99.90;;;;;;5060133;28;20059;-80
2022/11/11 14:07:47;;;;;;;8.68;3.38;;;13.10;99.90;;;;;;5061468;28;20055;-81
2022/11/11 14:10:16;;;;;;;4.47;2.83;;;13.00;99.90;;;;;;5080886;28;20494;-81
2022/11/11 14:12:48;;;;;;;11.23;3.53;;;13.00;99.90;;;;;;5069297;28;20049;-80
2022/11/11 14:15:53;;;;;;;3.35;2.47;;;13.00;99.90;;;;;;5055620;28;20049;-81
2022/11/11 14:18:18;;;;;;;6.90;2.88;;;12.90;99.90;;;;;;5012579;28;20104;-82